Aérodrome :
LOGIN :

S'inscrire | Disclaimer

   EN    FR    IT 

 










Légende :    VFR   VFR Marginal   IFR   IFR Intensif   IFR Très Intensif
Visi : 
Plafond : 
>= 8 km
>= 3000ft
5 à 8 km
1000 à 3000 ft
1500m à 5 km
500 à 1000 ft
800 à 1500m
200 à 500 ft
< 800m
< 200 ft
Symboles :   Orages  Brouillard  Fortes neiges  Fortes précipitations  Vent > 20 kt
SIGMETs :   Divers  Orages  Givrage  Turbulence  Onde Orograph.  Cendres Volcan.







- Altitude de l'aérodrome : 741 ft
- Code IATA : JKG


ESGJ - Jönköping

DERNIER METAR :
  • 131920Z 04008KT 9999 -SN BKN009 M01/M03 Q1030

METARs EXPIRÉS :
  • 131850Z 05010KT 9999 BKN009 M01/M03 Q1030
  • 131820Z 04008KT 9999 -SN BKN009 M01/M03 Q1030
  • 131750Z 04008KT 010V070 9999 -SN OVC009 M01/M03 Q1030
  • 131720Z 02008KT 9999 -SN BKN009 M01/M03 Q1030
  • 131650Z 03008KT 9999 -SN BKN010 M01/M03 Q1030

TAF TAF ESGJ
Valide du 13 à 18h jusqu'au 14 à 02h UTC


131730Z 1318/1402 03008KT 2500 -SN VV008
TEMPO 1318/1402 6000 SN BKN020
Pas de NOTAMs connus pour ce terrain.



MET'MAP, la Météo Aéronautique d'un coup d'oeil ! - Copyright ORBIFLY Décembre 2007 - Disclaimer

ORBIFLY MET'MAP TEAM :

Programmation & Développement : Alexandra Zaïnal
Conception & Développement : Baudouin d'Aumeries
Co-Programmation & Développement : Marc-Olivier Méhu
Soutien technique & logistique : Manuel Goepfert

Contact : metmap@orbifly.com




SOURCES & CREDITS :

   NOAA